ロンドン/ヒースロー の空港の天気 - METARとTAF

ロンドン・ヒースロー空港 ( EGLL / LHR ) - イギリス ロンドン
飛行場実況気象(Metar)
観測時間07/18 13:20 BST (07/18 12:20 UTC)
風向・風速北 3m/s
視程10km以上
天気現象
なし
気温23℃
湿度41%
気圧1018hPa
METAREGLL 181220Z AUTO VRB05KT 9999 NCD 23/09 Q1018 NOSIG
過去の天気等 Google飛行場航空写真 Wunderground天気予報

過去48時間のMETAR

飛行場予報(TAF)
発表時間: 7/18 11:54 BST (7/18 10:54 UTC)
予報対象時間: 18日13時 BST ~ 19日19時 BST
風向・風速西南西 3m/s
視程10km以上
少しの雲 雲底高度 1370m
19日5時 BST から 確率 30% で
視程8000m
TAF EGLL 181054Z 1812/1918 24006KT 9999 FEW045
PROB30 1904/1907 8000